KBPT

Jack Brooks Regional Airport

Beaumont/Port Arthur, Texas, USA
METAR KBPT 151853Z 20012G24KT 10SM BKN019 OVC036 26/18 A2979 RMK AO2 SLP085 T02560183
Observed Flight Rules
Feb-15 @ 18:53 UTC (16 minutes ago) Marginal Visual Flight Rules
Wind Visibility Clouds
200° at 12 knots
 Gusting to 24 knots
10 miles
  • Broken at 1,900' AGL
  • Overcast at 3,600' AGL
Temperatures Readings
Current 26°C / 79°F
Dewpoint 18°C / 64°F
Humidity 61%
Altimeter 29.79" Hg
Pressure 1008.5 hPa
Elevation 5
METAR KBPT 151853Z 20012G24KT 10SM BKN019 OVC036 26/18 A2979 RMK AO2 SLP085 T02560183
Observed Flight Rules
Feb-15 @ 18:53 UTC
(16 minutes ago)
MVFR
Wind Visibility
200° at 12 knots
 Gusting to 24 knots
10 miles
Clouds
  • Broken at 1,900' AGL
  • Overcast at 3,600' AGL
Temperature Dewpoint
26°C / 79°F 18°C / 64°F
Humidity Altimeter Pressure
61% 29.79" Hg 1008.5 hPa